sensor_id;sensor_type;location;lat;lon;timestamp;P1;durP1;ratioP1;P2;durP2;ratioP2
61019;SDS011;51384;45.494;9.150;2022-07-06T00:01:50;8.27;;;5.15;;
61019;SDS011;51384;45.494;9.150;2022-07-06T00:04:19;6.72;;;4.55;;
61019;SDS011;51384;45.494;9.150;2022-07-06T00:06:45;11.20;;;4.93;;
61019;SDS011;51384;45.494;9.150;2022-07-06T00:09:11;6.85;;;5.47;;
61019;SDS011;51384;45.494;9.150;2022-07-06T00:11:37;8.35;;;5.43;;
61019;SDS011;51384;45.494;9.150;2022-07-06T00:14:04;9.85;;;5.65;;
61019;SDS011;51384;45.494;9.150;2022-07-06T00:16:30;7.70;;;4.25;;
61019;SDS011;51384;45.494;9.150;2022-07-06T00:18:56;6.18;;;4.70;;
61019;SDS011;51384;45.494;9.150;2022-07-06T00:21:22;6.82;;;4.38;;
61019;SDS011;51384;45.494;9.150;2022-07-06T00:23:48;7.60;;;5.10;;
61019;SDS011;51384;45.494;9.150;2022-07-06T00:26:16;9.25;;;4.35;;
61019;SDS011;51384;45.494;9.150;2022-07-06T00:28:42;7.38;;;3.95;;
61019;SDS011;51384;45.494;9.150;2022-07-06T00:31:09;7.72;;;5.28;;
61019;SDS011;51384;45.494;9.150;2022-07-06T00:33:35;14.98;;;4.63;;
61019;SDS011;51384;45.494;9.150;2022-07-06T00:36:01;6.03;;;3.50;;
61019;SDS011;51384;45.494;9.150;2022-07-06T00:38:27;6.95;;;3.13;;
61019;SDS011;51384;45.494;9.150;2022-07-06T00:40:53;5.45;;;3.17;;
61019;SDS011;51384;45.494;9.150;2022-07-06T00:43:19;4.57;;;3.38;;
61019;SDS011;51384;45.494;9.150;2022-07-06T00:45:45;3.90;;;3.20;;
61019;SDS011;51384;45.494;9.150;2022-07-06T00:48:11;7.68;;;3.55;;
61019;SDS011;51384;45.494;9.150;2022-07-06T00:50:37;4.18;;;2.80;;
61019;SDS011;51384;45.494;9.150;2022-07-06T00:53:04;5.75;;;3.00;;
61019;SDS011;51384;45.494;9.150;2022-07-06T00:55:35;4.28;;;3.00;;
61019;SDS011;51384;45.494;9.150;2022-07-06T00:58:04;6.97;;;3.08;;
61019;SDS011;51384;45.494;9.150;2022-07-06T01:00:31;12.10;;;3.03;;
61019;SDS011;51384;45.494;9.150;2022-07-06T01:02:57;4.05;;;2.92;;
61019;SDS011;51384;45.494;9.150;2022-07-06T01:05:23;6.88;;;3.22;;
61019;SDS011;51384;45.494;9.150;2022-07-06T01:07:50;6.72;;;2.95;;
61019;SDS011;51384;45.494;9.150;2022-07-06T01:10:17;5.63;;;3.20;;
61019;SDS011;51384;45.494;9.150;2022-07-06T01:12:44;5.80;;;3.10;;
61019;SDS011;51384;45.494;9.150;2022-07-06T01:15:12;5.25;;;2.85;;
61019;SDS011;51384;45.494;9.150;2022-07-06T01:17:39;4.72;;;2.95;;
61019;SDS011;51384;45.494;9.150;2022-07-06T01:20:24;4.45;;;3.00;;
61019;SDS011;51384;45.494;9.150;2022-07-06T01:22:51;4.30;;;2.85;;
61019;SDS011;51384;45.494;9.150;2022-07-06T01:25:17;4.45;;;2.95;;
61019;SDS011;51384;45.494;9.150;2022-07-06T01:27:44;5.28;;;2.75;;
61019;SDS011;51384;45.494;9.150;2022-07-06T01:30:11;4.50;;;2.85;;
61019;SDS011;51384;45.494;9.150;2022-07-06T01:32:38;4.88;;;2.60;;
61019;SDS011;51384;45.494;9.150;2022-07-06T01:35:07;5.10;;;2.83;;
61019;SDS011;51384;45.494;9.150;2022-07-06T01:37:34;5.63;;;2.40;;
61019;SDS011;51384;45.494;9.150;2022-07-06T01:40:01;5.30;;;3.10;;
61019;SDS011;51384;45.494;9.150;2022-07-06T01:42:28;5.68;;;2.97;;
61019;SDS011;51384;45.494;9.150;2022-07-06T01:44:54;7.13;;;3.13;;
61019;SDS011;51384;45.494;9.150;2022-07-06T01:47:20;7.40;;;2.72;;
61019;SDS011;51384;45.494;9.150;2022-07-06T01:49:46;4.22;;;2.40;;
61019;SDS011;51384;45.494;9.150;2022-07-06T01:52:12;5.05;;;2.55;;
61019;SDS011;51384;45.494;9.150;2022-07-06T01:54:38;3.58;;;2.45;;
61019;SDS011;51384;45.494;9.150;2022-07-06T01:57:04;4.68;;;2.53;;
61019;SDS011;51384;45.494;9.150;2022-07-06T01:59:30;4.90;;;2.65;;
61019;SDS011;51384;45.494;9.150;2022-07-06T02:01:56;7.47;;;2.55;;
61019;SDS011;51384;45.494;9.150;2022-07-06T02:04:23;4.93;;;2.95;;
61019;SDS011;51384;45.494;9.150;2022-07-06T02:06:49;3.30;;;2.38;;
61019;SDS011;51384;45.494;9.150;2022-07-06T02:09:15;4.47;;;2.75;;
61019;SDS011;51384;45.494;9.150;2022-07-06T02:11:41;5.28;;;2.45;;
61019;SDS011;51384;45.494;9.150;2022-07-06T02:14:07;2.75;;;2.15;;
61019;SDS011;51384;45.494;9.150;2022-07-06T02:16:33;5.03;;;2.13;;
61019;SDS011;51384;45.494;9.150;2022-07-06T02:19:00;3.85;;;2.42;;
61019;SDS011;51384;45.494;9.150;2022-07-06T02:21:26;5.72;;;2.50;;
61019;SDS011;51384;45.494;9.150;2022-07-06T02:23:52;4.47;;;2.67;;
61019;SDS011;51384;45.494;9.150;2022-07-06T02:26:18;6.13;;;2.45;;
61019;SDS011;51384;45.494;9.150;2022-07-06T02:28:44;4.70;;;2.30;;
61019;SDS011;51384;45.494;9.150;2022-07-06T02:31:12;4.05;;;2.00;;
61019;SDS011;51384;45.494;9.150;2022-07-06T02:33:38;4.40;;;2.42;;
61019;SDS011;51384;45.494;9.150;2022-07-06T02:36:05;3.78;;;2.40;;
61019;SDS011;51384;45.494;9.150;2022-07-06T02:38:31;4.38;;;2.20;;
61019;SDS011;51384;45.494;9.150;2022-07-06T02:40:57;3.15;;;2.00;;
61019;SDS011;51384;45.494;9.150;2022-07-06T02:43:23;4.53;;;2.30;;
61019;SDS011;51384;45.494;9.150;2022-07-06T02:45:49;3.75;;;2.25;;
61019;SDS011;51384;45.494;9.150;2022-07-06T02:48:15;2.55;;;1.90;;
61019;SDS011;51384;45.494;9.150;2022-07-06T02:50:41;3.22;;;2.08;;
61019;SDS011;51384;45.494;9.150;2022-07-06T02:53:07;3.75;;;2.50;;
61019;SDS011;51384;45.494;9.150;2022-07-06T02:55:33;5.55;;;2.75;;
61019;SDS011;51384;45.494;9.150;2022-07-06T02:57:59;3.20;;;2.70;;
61019;SDS011;51384;45.494;9.150;2022-07-06T03:00:25;3.85;;;2.65;;
61019;SDS011;51384;45.494;9.150;2022-07-06T03:02:51;6.15;;;2.90;;
61019;SDS011;51384;45.494;9.150;2022-07-06T03:05:17;5.20;;;2.22;;
61019;SDS011;51384;45.494;9.150;2022-07-06T03:07:44;4.63;;;2.50;;
61019;SDS011;51384;45.494;9.150;2022-07-06T03:10:10;3.28;;;2.50;;
61019;SDS011;51384;45.494;9.150;2022-07-06T03:12:36;5.30;;;2.80;;
61019;SDS011;51384;45.494;9.150;2022-07-06T03:15:02;3.83;;;2.78;;
61019;SDS011;51384;45.494;9.150;2022-07-06T03:17:28;4.15;;;3.15;;
61019;SDS011;51384;45.494;9.150;2022-07-06T03:19:54;4.32;;;2.80;;
61019;SDS011;51384;45.494;9.150;2022-07-06T03:22:20;3.65;;;1.98;;
61019;SDS011;51384;45.494;9.150;2022-07-06T03:24:46;4.38;;;2.72;;
61019;SDS011;51384;45.494;9.150;2022-07-06T03:27:12;5.22;;;2.72;;
61019;SDS011;51384;45.494;9.150;2022-07-06T03:29:38;5.55;;;2.90;;
61019;SDS011;51384;45.494;9.150;2022-07-06T03:32:04;4.68;;;2.83;;
61019;SDS011;51384;45.494;9.150;2022-07-06T03:34:30;3.72;;;2.15;;
61019;SDS011;51384;45.494;9.150;2022-07-06T03:36:56;3.40;;;2.33;;
61019;SDS011;51384;45.494;9.150;2022-07-06T03:39:23;3.45;;;2.22;;
61019;SDS011;51384;45.494;9.150;2022-07-06T03:41:49;5.90;;;2.53;;
61019;SDS011;51384;45.494;9.150;2022-07-06T03:44:15;5.43;;;2.58;;
61019;SDS011;51384;45.494;9.150;2022-07-06T03:46:41;2.72;;;2.10;;
61019;SDS011;51384;45.494;9.150;2022-07-06T03:49:07;3.78;;;2.30;;
61019;SDS011;51384;45.494;9.150;2022-07-06T03:51:34;2.75;;;2.20;;
61019;SDS011;51384;45.494;9.150;2022-07-06T03:54:00;4.10;;;2.30;;
61019;SDS011;51384;45.494;9.150;2022-07-06T03:56:26;3.17;;;2.40;;
61019;SDS011;51384;45.494;9.150;2022-07-06T03:58:56;4.43;;;2.40;;
61019;SDS011;51384;45.494;9.150;2022-07-06T04:01:22;3.35;;;2.00;;
61019;SDS011;51384;45.494;9.150;2022-07-06T04:03:48;2.75;;;1.92;;
61019;SDS011;51384;45.494;9.150;2022-07-06T04:06:14;5.55;;;2.00;;
61019;SDS011;51384;45.494;9.150;2022-07-06T04:08:40;3.15;;;2.05;;
61019;SDS011;51384;45.494;9.150;2022-07-06T04:11:06;3.97;;;2.10;;
61019;SDS011;51384;45.494;9.150;2022-07-06T04:13:33;4.45;;;2.60;;
61019;SDS011;51384;45.494;9.150;2022-07-06T04:15:59;3.33;;;2.20;;
61019;SDS011;51384;45.494;9.150;2022-07-06T04:18:25;3.97;;;1.83;;
61019;SDS011;51384;45.494;9.150;2022-07-06T04:20:51;3.70;;;2.10;;
61019;SDS011;51384;45.494;9.150;2022-07-06T04:23:17;2.05;;;1.60;;
61019;SDS011;51384;45.494;9.150;2022-07-06T04:25:43;3.28;;;2.03;;
61019;SDS011;51384;45.494;9.150;2022-07-06T04:28:09;6.63;;;2.20;;
61019;SDS011;51384;45.494;9.150;2022-07-06T04:30:35;5.25;;;2.35;;
61019;SDS011;51384;45.494;9.150;2022-07-06T04:33:01;3.25;;;2.15;;
61019;SDS011;51384;45.494;9.150;2022-07-06T04:35:27;3.45;;;1.80;;
61019;SDS011;51384;45.494;9.150;2022-07-06T04:37:53;3.35;;;2.20;;
61019;SDS011;51384;45.494;9.150;2022-07-06T04:40:19;4.75;;;2.00;;
61019;SDS011;51384;45.494;9.150;2022-07-06T04:42:46;3.83;;;2.28;;
61019;SDS011;51384;45.494;9.150;2022-07-06T04:45:12;5.18;;;2.63;;
61019;SDS011;51384;45.494;9.150;2022-07-06T04:47:38;3.25;;;1.80;;
61019;SDS011;51384;45.494;9.150;2022-07-06T04:50:05;2.67;;;1.67;;
61019;SDS011;51384;45.494;9.150;2022-07-06T04:52:31;2.28;;;1.52;;
61019;SDS011;51384;45.494;9.150;2022-07-06T04:54:57;3.22;;;2.10;;
61019;SDS011;51384;45.494;9.150;2022-07-06T04:57:24;6.85;;;2.25;;
61019;SDS011;51384;45.494;9.150;2022-07-06T04:59:54;4.68;;;2.35;;
61019;SDS011;51384;45.494;9.150;2022-07-06T05:02:21;3.38;;;1.95;;
61019;SDS011;51384;45.494;9.150;2022-07-06T05:04:47;2.53;;;1.83;;
61019;SDS011;51384;45.494;9.150;2022-07-06T05:07:13;2.80;;;1.90;;
61019;SDS011;51384;45.494;9.150;2022-07-06T05:09:39;4.47;;;2.47;;
61019;SDS011;51384;45.494;9.150;2022-07-06T05:12:06;3.25;;;2.20;;
61019;SDS011;51384;45.494;9.150;2022-07-06T05:14:32;3.88;;;1.85;;
61019;SDS011;51384;45.494;9.150;2022-07-06T05:16:58;3.40;;;1.90;;
61019;SDS011;51384;45.494;9.150;2022-07-06T05:19:24;5.28;;;2.20;;
61019;SDS011;51384;45.494;9.150;2022-07-06T05:21:50;3.72;;;1.90;;
61019;SDS011;51384;45.494;9.150;2022-07-06T05:24:16;3.28;;;2.15;;
61019;SDS011;51384;45.494;9.150;2022-07-06T05:26:44;3.53;;;1.90;;
61019;SDS011;51384;45.494;9.150;2022-07-06T05:29:10;3.38;;;2.05;;
61019;SDS011;51384;45.494;9.150;2022-07-06T05:31:36;4.28;;;2.17;;
61019;SDS011;51384;45.494;9.150;2022-07-06T05:34:02;4.28;;;2.17;;
61019;SDS011;51384;45.494;9.150;2022-07-06T05:36:28;4.00;;;1.80;;
61019;SDS011;51384;45.494;9.150;2022-07-06T05:38:54;4.95;;;2.38;;
61019;SDS011;51384;45.494;9.150;2022-07-06T05:41:20;5.05;;;2.40;;
61019;SDS011;51384;45.494;9.150;2022-07-06T05:43:46;3.05;;;1.90;;
61019;SDS011;51384;45.494;9.150;2022-07-06T05:46:13;2.90;;;2.00;;
61019;SDS011;51384;45.494;9.150;2022-07-06T05:48:39;5.03;;;2.42;;
61019;SDS011;51384;45.494;9.150;2022-07-06T05:51:24;3.67;;;1.90;;
61019;SDS011;51384;45.494;9.150;2022-07-06T05:53:50;4.32;;;2.25;;
61019;SDS011;51384;45.494;9.150;2022-07-06T05:56:16;3.17;;;2.03;;
61019;SDS011;51384;45.494;9.150;2022-07-06T05:58:42;3.63;;;2.50;;
61019;SDS011;51384;45.494;9.150;2022-07-06T06:01:08;5.18;;;2.38;;
61019;SDS011;51384;45.494;9.150;2022-07-06T06:03:35;4.88;;;2.03;;
61019;SDS011;51384;45.494;9.150;2022-07-06T06:06:01;4.05;;;2.17;;
61019;SDS011;51384;45.494;9.150;2022-07-06T06:08:27;3.70;;;2.17;;
61019;SDS011;51384;45.494;9.150;2022-07-06T06:10:53;3.08;;;1.95;;
61019;SDS011;51384;45.494;9.150;2022-07-06T06:13:19;4.80;;;2.40;;
61019;SDS011;51384;45.494;9.150;2022-07-06T06:15:45;4.47;;;2.30;;
61019;SDS011;51384;45.494;9.150;2022-07-06T06:18:11;5.20;;;2.00;;
61019;SDS011;51384;45.494;9.150;2022-07-06T06:20:38;6.03;;;2.28;;
61019;SDS011;51384;45.494;9.150;2022-07-06T06:23:04;6.43;;;2.60;;
61019;SDS011;51384;45.494;9.150;2022-07-06T06:25:31;4.47;;;2.38;;
61019;SDS011;51384;45.494;9.150;2022-07-06T06:27:58;5.50;;;2.80;;
61019;SDS011;51384;45.494;9.150;2022-07-06T06:30:24;4.18;;;2.60;;
61019;SDS011;51384;45.494;9.150;2022-07-06T06:32:50;5.13;;;2.63;;
61019;SDS011;51384;45.494;9.150;2022-07-06T06:35:16;3.67;;;2.58;;
61019;SDS011;51384;45.494;9.150;2022-07-06T06:37:43;7.28;;;2.50;;
61019;SDS011;51384;45.494;9.150;2022-07-06T06:40:09;3.50;;;2.70;;
61019;SDS011;51384;45.494;9.150;2022-07-06T06:42:35;6.57;;;3.67;;
61019;SDS011;51384;45.494;9.150;2022-07-06T06:45:02;3.20;;;2.33;;
61019;SDS011;51384;45.494;9.150;2022-07-06T06:47:28;3.47;;;2.42;;
61019;SDS011;51384;45.494;9.150;2022-07-06T06:49:55;8.25;;;4.40;;
61019;SDS011;51384;45.494;9.150;2022-07-06T06:52:21;3.03;;;2.15;;
61019;SDS011;51384;45.494;9.150;2022-07-06T06:54:47;5.07;;;2.72;;
61019;SDS011;51384;45.494;9.150;2022-07-06T06:57:13;5.15;;;2.40;;
61019;SDS011;51384;45.494;9.150;2022-07-06T06:59:42;3.95;;;2.10;;
61019;SDS011;51384;45.494;9.150;2022-07-06T07:02:08;5.10;;;2.55;;
61019;SDS011;51384;45.494;9.150;2022-07-06T07:04:34;3.55;;;2.15;;
61019;SDS011;51384;45.494;9.150;2022-07-06T07:07:00;4.00;;;2.45;;
61019;SDS011;51384;45.494;9.150;2022-07-06T07:09:26;5.93;;;2.28;;
61019;SDS011;51384;45.494;9.150;2022-07-06T07:11:52;5.30;;;2.47;;
61019;SDS011;51384;45.494;9.150;2022-07-06T07:14:19;5.68;;;2.78;;
61019;SDS011;51384;45.494;9.150;2022-07-06T07:16:46;2.88;;;1.83;;
61019;SDS011;51384;45.494;9.150;2022-07-06T07:19:12;6.57;;;2.30;;
61019;SDS011;51384;45.494;9.150;2022-07-06T07:21:38;4.72;;;2.78;;
61019;SDS011;51384;45.494;9.150;2022-07-06T07:24:04;2.40;;;1.90;;
61019;SDS011;51384;45.494;9.150;2022-07-06T07:26:30;3.78;;;2.30;;
61019;SDS011;51384;45.494;9.150;2022-07-06T07:28:56;2.90;;;2.22;;
61019;SDS011;51384;45.494;9.150;2022-07-06T07:31:22;5.35;;;2.60;;
61019;SDS011;51384;45.494;9.150;2022-07-06T07:33:48;4.25;;;2.80;;
61019;SDS011;51384;45.494;9.150;2022-07-06T07:36:14;4.60;;;2.47;;
61019;SDS011;51384;45.494;9.150;2022-07-06T07:38:40;3.00;;;2.20;;
61019;SDS011;51384;45.494;9.150;2022-07-06T07:41:06;7.15;;;3.38;;
61019;SDS011;51384;45.494;9.150;2022-07-06T07:43:32;4.22;;;2.42;;
61019;SDS011;51384;45.494;9.150;2022-07-06T07:45:58;4.40;;;2.67;;
61019;SDS011;51384;45.494;9.150;2022-07-06T07:48:24;5.35;;;2.50;;
61019;SDS011;51384;45.494;9.150;2022-07-06T07:50:50;5.82;;;2.50;;
61019;SDS011;51384;45.494;9.150;2022-07-06T07:53:17;5.72;;;3.08;;
61019;SDS011;51384;45.494;9.150;2022-07-06T07:55:43;4.38;;;2.78;;
61019;SDS011;51384;45.494;9.150;2022-07-06T07:58:09;8.15;;;2.60;;
61019;SDS011;51384;45.494;9.150;2022-07-06T08:00:35;3.30;;;2.30;;
61019;SDS011;51384;45.494;9.150;2022-07-06T08:03:01;4.57;;;2.45;;
61019;SDS011;51384;45.494;9.150;2022-07-06T08:05:27;4.65;;;2.28;;
61019;SDS011;51384;45.494;9.150;2022-07-06T08:07:53;5.03;;;2.50;;
61019;SDS011;51384;45.494;9.150;2022-07-06T08:10:19;4.07;;;2.63;;
61019;SDS011;51384;45.494;9.150;2022-07-06T08:12:46;4.70;;;2.95;;
61019;SDS011;51384;45.494;9.150;2022-07-06T08:15:12;5.13;;;3.00;;
61019;SDS011;51384;45.494;9.150;2022-07-06T08:17:38;4.10;;;2.88;;
61019;SDS011;51384;45.494;9.150;2022-07-06T08:20:05;2.63;;;2.10;;
61019;SDS011;51384;45.494;9.150;2022-07-06T08:22:31;7.88;;;3.05;;
61019;SDS011;51384;45.494;9.150;2022-07-06T08:24:57;3.47;;;2.55;;
61019;SDS011;51384;45.494;9.150;2022-07-06T08:27:23;3.17;;;2.40;;
61019;SDS011;51384;45.494;9.150;2022-07-06T08:29:50;4.70;;;2.50;;
61019;SDS011;51384;45.494;9.150;2022-07-06T08:32:16;4.50;;;2.08;;
61019;SDS011;51384;45.494;9.150;2022-07-06T08:34:42;5.80;;;2.70;;
61019;SDS011;51384;45.494;9.150;2022-07-06T08:37:09;6.30;;;2.33;;
61019;SDS011;51384;45.494;9.150;2022-07-06T08:39:35;3.65;;;2.10;;
61019;SDS011;51384;45.494;9.150;2022-07-06T08:42:01;3.25;;;2.10;;
61019;SDS011;51384;45.494;9.150;2022-07-06T08:44:28;4.65;;;2.65;;
61019;SDS011;51384;45.494;9.150;2022-07-06T08:46:54;4.75;;;2.58;;
61019;SDS011;51384;45.494;9.150;2022-07-06T08:49:22;4.53;;;2.47;;
61019;SDS011;51384;45.494;9.150;2022-07-06T08:51:48;4.35;;;2.83;;
61019;SDS011;51384;45.494;9.150;2022-07-06T08:54:14;5.05;;;2.40;;
61019;SDS011;51384;45.494;9.150;2022-07-06T08:56:40;4.03;;;2.38;;
61019;SDS011;51384;45.494;9.150;2022-07-06T08:59:06;4.20;;;2.33;;
61019;SDS011;51384;45.494;9.150;2022-07-06T09:01:34;4.63;;;2.40;;
61019;SDS011;51384;45.494;9.150;2022-07-06T09:04:00;3.60;;;2.45;;
61019;SDS011;51384;45.494;9.150;2022-07-06T09:06:28;4.55;;;2.53;;
61019;SDS011;51384;45.494;9.150;2022-07-06T09:08:55;4.88;;;2.30;;
61019;SDS011;51384;45.494;9.150;2022-07-06T09:11:22;3.03;;;2.03;;
61019;SDS011;51384;45.494;9.150;2022-07-06T09:13:49;4.82;;;2.50;;
61019;SDS011;51384;45.494;9.150;2022-07-06T09:16:16;3.67;;;2.63;;
61019;SDS011;51384;45.494;9.150;2022-07-06T09:18:45;3.05;;;1.95;;
61019;SDS011;51384;45.494;9.150;2022-07-06T09:21:12;3.95;;;2.25;;
61019;SDS011;51384;45.494;9.150;2022-07-06T09:23:49;5.53;;;2.42;;
61019;SDS011;51384;45.494;9.150;2022-07-06T09:26:18;6.35;;;2.28;;
61019;SDS011;51384;45.494;9.150;2022-07-06T09:28:44;3.33;;;2.13;;
61019;SDS011;51384;45.494;9.150;2022-07-06T09:31:10;5.45;;;2.10;;
61019;SDS011;51384;45.494;9.150;2022-07-06T09:33:37;2.92;;;1.70;;
61019;SDS011;51384;45.494;9.150;2022-07-06T09:36:04;3.47;;;2.58;;
61019;SDS011;51384;45.494;9.150;2022-07-06T09:38:31;4.30;;;2.03;;
61019;SDS011;51384;45.494;9.150;2022-07-06T09:40:57;4.13;;;2.22;;
61019;SDS011;51384;45.494;9.150;2022-07-06T09:43:24;3.97;;;1.60;;
61019;SDS011;51384;45.494;9.150;2022-07-06T09:45:54;4.25;;;2.00;;
61019;SDS011;51384;45.494;9.150;2022-07-06T09:50:50;5.50;;;2.28;;
61019;SDS011;51384;45.494;9.150;2022-07-06T09:53:18;2.33;;;2.10;;
61019;SDS011;51384;45.494;9.150;2022-07-06T09:55:48;3.35;;;2.13;;
61019;SDS011;51384;45.494;9.150;2022-07-06T09:58:14;4.45;;;1.92;;
61019;SDS011;51384;45.494;9.150;2022-07-06T10:00:41;4.93;;;2.47;;
61019;SDS011;51384;45.494;9.150;2022-07-06T10:03:08;3.03;;;2.25;;
61019;SDS011;51384;45.494;9.150;2022-07-06T10:05:37;3.22;;;1.98;;
61019;SDS011;51384;45.494;9.150;2022-07-06T10:08:05;2.58;;;1.75;;
61019;SDS011;51384;45.494;9.150;2022-07-06T10:10:31;2.92;;;2.08;;
61019;SDS011;51384;45.494;9.150;2022-07-06T10:12:58;4.95;;;2.67;;
61019;SDS011;51384;45.494;9.150;2022-07-06T10:15:25;3.30;;;1.95;;
61019;SDS011;51384;45.494;9.150;2022-07-06T10:17:52;3.20;;;2.08;;
61019;SDS011;51384;45.494;9.150;2022-07-06T10:20:19;5.22;;;2.45;;
61019;SDS011;51384;45.494;9.150;2022-07-06T10:22:48;6.13;;;2.30;;
61019;SDS011;51384;45.494;9.150;2022-07-06T10:25:18;4.15;;;2.17;;
61019;SDS011;51384;45.494;9.150;2022-07-06T10:27:45;3.60;;;2.03;;
61019;SDS011;51384;45.494;9.150;2022-07-06T10:30:11;4.13;;;2.25;;
61019;SDS011;51384;45.494;9.150;2022-07-06T10:32:38;4.25;;;2.97;;
61019;SDS011;51384;45.494;9.150;2022-07-06T10:35:05;3.42;;;2.10;;
61019;SDS011;51384;45.494;9.150;2022-07-06T10:37:31;5.15;;;2.58;;
61019;SDS011;51384;45.494;9.150;2022-07-06T10:39:59;3.30;;;2.30;;
61019;SDS011;51384;45.494;9.150;2022-07-06T10:45:12;6.10;;;2.72;;
61019;SDS011;51384;45.494;9.150;2022-07-06T10:47:39;3.22;;;2.40;;
61019;SDS011;51384;45.494;9.150;2022-07-06T10:50:06;3.65;;;2.50;;
61019;SDS011;51384;45.494;9.150;2022-07-06T10:57:55;3.75;;;2.58;;
61019;SDS011;51384;45.494;9.150;2022-07-06T11:00:21;3.35;;;2.47;;
61019;SDS011;51384;45.494;9.150;2022-07-06T11:02:47;3.40;;;2.45;;
61019;SDS011;51384;45.494;9.150;2022-07-06T11:08:01;2.97;;;2.33;;
61019;SDS011;51384;45.494;9.150;2022-07-06T11:10:27;3.53;;;2.45;;
61019;SDS011;51384;45.494;9.150;2022-07-06T11:12:59;4.50;;;2.50;;
61019;SDS011;51384;45.494;9.150;2022-07-06T11:18:11;4.15;;;2.42;;
61019;SDS011;51384;45.494;9.150;2022-07-06T11:20:37;4.93;;;2.88;;
61019;SDS011;51384;45.494;9.150;2022-07-06T11:23:03;4.22;;;2.50;;
61019;SDS011;51384;45.494;9.150;2022-07-06T11:25:29;4.25;;;2.78;;
61019;SDS011;51384;45.494;9.150;2022-07-06T11:27:55;6.10;;;2.83;;
61019;SDS011;51384;45.494;9.150;2022-07-06T11:30:22;4.13;;;2.47;;
61019;SDS011;51384;45.494;9.150;2022-07-06T11:32:48;2.97;;;2.67;;
61019;SDS011;51384;45.494;9.150;2022-07-06T11:35:21;5.68;;;2.50;;
61019;SDS011;51384;45.494;9.150;2022-07-06T11:37:47;4.10;;;2.58;;
61019;SDS011;51384;45.494;9.150;2022-07-06T11:40:13;2.88;;;2.40;;
61019;SDS011;51384;45.494;9.150;2022-07-06T11:42:53;4.78;;;2.65;;
61019;SDS011;51384;45.494;9.150;2022-07-06T11:45:26;5.07;;;2.72;;
61019;SDS011;51384;45.494;9.150;2022-07-06T11:48:08;5.28;;;3.03;;
61019;SDS011;51384;45.494;9.150;2022-07-06T11:50:35;2.70;;;2.33;;
61019;SDS011;51384;45.494;9.150;2022-07-06T11:53:01;3.50;;;2.50;;
61019;SDS011;51384;45.494;9.150;2022-07-06T11:55:28;5.95;;;4.03;;
61019;SDS011;51384;45.494;9.150;2022-07-06T11:57:54;4.10;;;2.28;;
61019;SDS011;51384;45.494;9.150;2022-07-06T12:00:22;4.07;;;2.42;;
61019;SDS011;51384;45.494;9.150;2022-07-06T12:03:00;3.78;;;2.30;;
61019;SDS011;51384;45.494;9.150;2022-07-06T12:05:30;3.90;;;2.30;;
61019;SDS011;51384;45.494;9.150;2022-07-06T12:08:05;2.72;;;2.10;;
61019;SDS011;51384;45.494;9.150;2022-07-06T12:10:33;3.65;;;2.38;;
61019;SDS011;51384;45.494;9.150;2022-07-06T12:13:04;5.05;;;2.47;;
61019;SDS011;51384;45.494;9.150;2022-07-06T12:15:30;3.42;;;2.35;;
61019;SDS011;51384;45.494;9.150;2022-07-06T12:17:56;2.75;;;2.30;;
61019;SDS011;51384;45.494;9.150;2022-07-06T12:20:22;4.05;;;2.60;;
61019;SDS011;51384;45.494;9.150;2022-07-06T12:23:00;3.45;;;2.25;;
61019;SDS011;51384;45.494;9.150;2022-07-06T12:25:32;5.50;;;2.50;;
61019;SDS011;51384;45.494;9.150;2022-07-06T12:30:24;5.22;;;2.78;;
61019;SDS011;51384;45.494;9.150;2022-07-06T12:35:34;6.68;;;2.60;;
61019;SDS011;51384;45.494;9.150;2022-07-06T12:38:00;3.95;;;2.38;;
61019;SDS011;51384;45.494;9.150;2022-07-06T12:40:27;4.07;;;2.50;;
61019;SDS011;51384;45.494;9.150;2022-07-06T12:42:53;3.35;;;2.38;;
61019;SDS011;51384;45.494;9.150;2022-07-06T12:45:19;4.25;;;2.20;;
61019;SDS011;51384;45.494;9.150;2022-07-06T12:50:38;4.33;;;2.63;;
61019;SDS011;51384;45.494;9.150;2022-07-06T12:53:12;4.45;;;2.10;;
61019;SDS011;51384;45.494;9.150;2022-07-06T12:55:48;3.10;;;2.33;;
61019;SDS011;51384;45.494;9.150;2022-07-06T12:58:18;3.95;;;2.10;;
61019;SDS011;51384;45.494;9.150;2022-07-06T13:00:44;2.88;;;2.25;;
61019;SDS011;51384;45.494;9.150;2022-07-06T13:03:11;4.38;;;2.42;;
61019;SDS011;51384;45.494;9.150;2022-07-06T13:05:37;3.42;;;2.33;;
61019;SDS011;51384;45.494;9.150;2022-07-06T13:08:03;4.75;;;2.30;;
61019;SDS011;51384;45.494;9.150;2022-07-06T13:10:29;3.45;;;2.25;;
61019;SDS011;51384;45.494;9.150;2022-07-06T13:12:55;6.18;;;2.25;;
61019;SDS011;51384;45.494;9.150;2022-07-06T13:15:22;5.35;;;2.55;;
61019;SDS011;51384;45.494;9.150;2022-07-06T13:17:48;4.82;;;2.60;;
61019;SDS011;51384;45.494;9.150;2022-07-06T13:20:14;6.32;;;2.47;;
61019;SDS011;51384;45.494;9.150;2022-07-06T13:22:42;3.78;;;2.03;;
61019;SDS011;51384;45.494;9.150;2022-07-06T13:25:08;3.00;;;2.30;;
61019;SDS011;51384;45.494;9.150;2022-07-06T13:27:34;8.23;;;2.35;;
61019;SDS011;51384;45.494;9.150;2022-07-06T13:30:00;2.65;;;2.03;;
61019;SDS011;51384;45.494;9.150;2022-07-06T13:32:27;3.83;;;2.13;;
61019;SDS011;51384;45.494;9.150;2022-07-06T13:34:53;2.80;;;2.30;;
61019;SDS011;51384;45.494;9.150;2022-07-06T13:37:19;2.72;;;2.20;;
61019;SDS011;51384;45.494;9.150;2022-07-06T13:39:46;2.40;;;2.00;;
61019;SDS011;51384;45.494;9.150;2022-07-06T13:42:12;5.03;;;2.50;;
61019;SDS011;51384;45.494;9.150;2022-07-06T13:44:38;4.65;;;2.20;;
61019;SDS011;51384;45.494;9.150;2022-07-06T13:47:04;4.10;;;2.35;;
61019;SDS011;51384;45.494;9.150;2022-07-06T13:49:30;3.30;;;2.03;;
61019;SDS011;51384;45.494;9.150;2022-07-06T13:51:56;2.83;;;2.08;;
61019;SDS011;51384;45.494;9.150;2022-07-06T13:54:28;4.68;;;2.25;;
61019;SDS011;51384;45.494;9.150;2022-07-06T13:56:54;3.97;;;2.08;;
61019;SDS011;51384;45.494;9.150;2022-07-06T13:59:20;2.88;;;1.90;;
61019;SDS011;51384;45.494;9.150;2022-07-06T14:01:46;4.20;;;2.47;;
61019;SDS011;51384;45.494;9.150;2022-07-06T14:04:12;5.97;;;2.28;;
61019;SDS011;51384;45.494;9.150;2022-07-06T14:06:38;3.28;;;2.17;;
61019;SDS011;51384;45.494;9.150;2022-07-06T14:09:04;2.97;;;1.80;;
61019;SDS011;51384;45.494;9.150;2022-07-06T14:11:30;4.57;;;2.20;;
61019;SDS011;51384;45.494;9.150;2022-07-06T14:13:56;5.90;;;3.00;;
61019;SDS011;51384;45.494;9.150;2022-07-06T14:16:22;3.28;;;1.80;;
61019;SDS011;51384;45.494;9.150;2022-07-06T14:18:49;3.38;;;2.10;;
61019;SDS011;51384;45.494;9.150;2022-07-06T14:21:16;4.75;;;2.10;;
61019;SDS011;51384;45.494;9.150;2022-07-06T14:23:42;3.30;;;2.08;;
61019;SDS011;51384;45.494;9.150;2022-07-06T14:26:08;7.25;;;2.13;;
61019;SDS011;51384;45.494;9.150;2022-07-06T14:28:34;3.70;;;1.90;;
61019;SDS011;51384;45.494;9.150;2022-07-06T14:31:00;4.30;;;2.15;;
61019;SDS011;51384;45.494;9.150;2022-07-06T14:33:27;2.20;;;1.90;;
61019;SDS011;51384;45.494;9.150;2022-07-06T14:35:54;3.25;;;2.00;;
61019;SDS011;51384;45.494;9.150;2022-07-06T14:38:20;2.60;;;1.77;;
61019;SDS011;51384;45.494;9.150;2022-07-06T14:40:47;4.15;;;2.13;;
61019;SDS011;51384;45.494;9.150;2022-07-06T14:43:14;3.55;;;1.92;;
61019;SDS011;51384;45.494;9.150;2022-07-06T14:45:40;5.20;;;2.10;;
61019;SDS011;51384;45.494;9.150;2022-07-06T14:48:08;3.15;;;1.90;;
61019;SDS011;51384;45.494;9.150;2022-07-06T14:50:35;3.63;;;2.10;;
61019;SDS011;51384;45.494;9.150;2022-07-06T14:53:01;3.35;;;1.90;;
61019;SDS011;51384;45.494;9.150;2022-07-06T14:55:27;3.35;;;2.17;;
61019;SDS011;51384;45.494;9.150;2022-07-06T14:57:53;3.33;;;2.30;;
61019;SDS011;51384;45.494;9.150;2022-07-06T15:00:20;2.72;;;2.20;;
61019;SDS011;51384;45.494;9.150;2022-07-06T15:02:47;3.08;;;2.08;;
61019;SDS011;51384;45.494;9.150;2022-07-06T15:05:13;4.57;;;2.25;;
61019;SDS011;51384;45.494;9.150;2022-07-06T15:07:39;5.55;;;2.38;;
61019;SDS011;51384;45.494;9.150;2022-07-06T15:10:06;4.22;;;2.30;;